sensor_id;sensor_type;location;lat;lon;timestamp;pressure;altitude;pressure_sealevel;temperature;humidity
54455;BME280;40364;52.270;10.546;2023-09-07T00:00:55;101249.31;;;32.17;38.47
54455;BME280;40364;52.270;10.546;2023-09-07T00:03:21;101252.34;;;32.13;38.67
54455;BME280;40364;52.270;10.546;2023-09-07T00:05:48;101255.22;;;32.13;38.72
54455;BME280;40364;52.270;10.546;2023-09-07T00:08:14;101251.13;;;32.23;38.43
54455;BME280;40364;52.270;10.546;2023-09-07T00:10:42;101250.34;;;32.50;38.08
54455;BME280;40364;52.270;10.546;2023-09-07T00:13:09;101257.16;;;32.07;38.39
54455;BME280;40364;52.270;10.546;2023-09-07T00:15:37;101249.69;;;32.28;38.33
54455;BME280;40364;52.270;10.546;2023-09-07T00:18:04;101243.00;;;31.91;38.67
54455;BME280;40364;52.270;10.546;2023-09-07T00:20:31;101239.13;;;31.85;38.57
54455;BME280;40364;52.270;10.546;2023-09-07T00:22:58;101240.41;;;31.74;38.83
54455;BME280;40364;52.270;10.546;2023-09-07T00:25:29;101244.09;;;32.33;38.27
54455;BME280;40364;52.270;10.546;2023-09-07T00:27:57;101249.78;;;32.15;38.67
54455;BME280;40364;52.270;10.546;2023-09-07T00:30:23;101256.75;;;31.77;38.93
54455;BME280;40364;52.270;10.546;2023-09-07T00:32:50;101250.47;;;31.70;38.72
54455;BME280;40364;52.270;10.546;2023-09-07T00:35:17;101249.03;;;31.74;38.74
54455;BME280;40364;52.270;10.546;2023-09-07T00:37:43;101249.53;;;31.73;38.64
54455;BME280;40364;52.270;10.546;2023-09-07T00:40:10;101244.75;;;31.79;38.57
54455;BME280;40364;52.270;10.546;2023-09-07T00:42:37;101240.16;;;31.60;38.97
54455;BME280;40364;52.270;10.546;2023-09-07T00:45:06;101246.06;;;31.96;38.50
54455;BME280;40364;52.270;10.546;2023-09-07T00:47:34;101241.41;;;31.90;39.27
54455;BME280;40364;52.270;10.546;2023-09-07T00:50:01;101247.00;;;31.53;39.56
54455;BME280;40364;52.270;10.546;2023-09-07T00:52:29;101247.94;;;31.50;39.42
54455;BME280;40364;52.270;10.546;2023-09-07T00:54:56;101249.03;;;31.43;39.82
54455;BME280;40364;52.270;10.546;2023-09-07T00:57:24;101250.06;;;31.59;39.42
54455;BME280;40364;52.270;10.546;2023-09-07T00:59:51;101240.34;;;31.34;39.90
54455;BME280;40364;52.270;10.546;2023-09-07T01:02:19;101239.19;;;31.63;39.81
54455;BME280;40364;52.270;10.546;2023-09-07T01:04:45;101239.41;;;31.37;39.83
54455;BME280;40364;52.270;10.546;2023-09-07T01:07:18;101239.19;;;31.63;39.61
54455;BME280;40364;52.270;10.546;2023-09-07T01:09:49;101247.66;;;31.57;40.03
54455;BME280;40364;52.270;10.546;2023-09-07T01:12:17;101249.72;;;31.26;39.98
54455;BME280;40364;52.270;10.546;2023-09-07T01:14:44;101245.03;;;31.19;40.00
54455;BME280;40364;52.270;10.546;2023-09-07T01:17:12;101246.91;;;31.35;40.15
54455;BME280;40364;52.270;10.546;2023-09-07T01:19:40;101240.75;;;31.45;39.96
54455;BME280;40364;52.270;10.546;2023-09-07T01:22:08;101242.34;;;31.46;40.27
54455;BME280;40364;52.270;10.546;2023-09-07T01:24:37;101235.84;;;31.64;39.67
54455;BME280;40364;52.270;10.546;2023-09-07T01:27:05;101247.75;;;31.13;40.17
54455;BME280;40364;52.270;10.546;2023-09-07T01:29:31;101243.94;;;31.17;39.95
54455;BME280;40364;52.270;10.546;2023-09-07T01:31:59;101248.09;;;31.16;40.03
54455;BME280;40364;52.270;10.546;2023-09-07T01:34:25;101244.41;;;31.15;40.08
54455;BME280;40364;52.270;10.546;2023-09-07T01:36:52;101241.06;;;31.17;39.45
54455;BME280;40364;52.270;10.546;2023-09-07T01:39:20;101240.69;;;31.36;39.95
54455;BME280;40364;52.270;10.546;2023-09-07T01:41:47;101240.22;;;30.94;40.13
54455;BME280;40364;52.270;10.546;2023-09-07T01:44:13;101236.50;;;31.06;39.84
54455;BME280;40364;52.270;10.546;2023-09-07T01:46:40;101244.66;;;30.86;40.23
54455;BME280;40364;52.270;10.546;2023-09-07T01:52:28;101239.69;;;30.65;40.72
54455;BME280;40364;52.270;10.546;2023-09-07T01:54:58;101238.66;;;31.15;40.05
54455;BME280;40364;52.270;10.546;2023-09-07T01:57:24;101231.00;;;30.77;40.29
54455;BME280;40364;52.270;10.546;2023-09-07T01:59:51;101230.13;;;30.68;40.58
54455;BME280;40364;52.270;10.546;2023-09-07T02:02:17;101236.91;;;30.74;40.38
54455;BME280;40364;52.270;10.546;2023-09-07T02:04:44;101231.28;;;30.70;40.39
54455;BME280;40364;52.270;10.546;2023-09-07T02:07:11;101233.72;;;30.59;41.12
54455;BME280;40364;52.270;10.546;2023-09-07T02:09:38;101235.03;;;30.80;39.94
54455;BME280;40364;52.270;10.546;2023-09-07T02:12:06;101240.22;;;30.94;40.59
54455;BME280;40364;52.270;10.546;2023-09-07T02:14:35;101237.56;;;30.78;39.88
54455;BME280;40364;52.270;10.546;2023-09-07T02:17:01;101234.09;;;30.14;40.85
54455;BME280;40364;52.270;10.546;2023-09-07T02:19:28;101244.03;;;30.35;41.01
54455;BME280;40364;52.270;10.546;2023-09-07T02:25:14;101244.81;;;30.35;40.72
54455;BME280;40364;52.270;10.546;2023-09-07T02:27:42;101248.53;;;30.70;39.92
54455;BME280;40364;52.270;10.546;2023-09-07T02:30:09;101237.53;;;30.22;40.97
54455;BME280;40364;52.270;10.546;2023-09-07T02:32:36;101245.69;;;29.98;41.49
54455;BME280;40364;52.270;10.546;2023-09-07T02:35:03;101244.59;;;30.30;40.71
54455;BME280;40364;52.270;10.546;2023-09-07T02:37:30;101242.06;;;30.44;40.36
54455;BME280;40364;52.270;10.546;2023-09-07T02:39:58;101242.53;;;30.30;40.42
54455;BME280;40364;52.270;10.546;2023-09-07T02:42:24;101242.72;;;30.14;40.82
54455;BME280;40364;52.270;10.546;2023-09-07T02:44:52;101243.47;;;30.27;41.20
54455;BME280;40364;52.270;10.546;2023-09-07T02:47:19;101236.28;;;30.10;40.91
54455;BME280;40364;52.270;10.546;2023-09-07T02:49:46;101240.06;;;30.07;40.82
54455;BME280;40364;52.270;10.546;2023-09-07T02:52:12;101247.31;;;29.99;40.83
54455;BME280;40364;52.270;10.546;2023-09-07T02:54:39;101252.69;;;30.22;40.39
54455;BME280;40364;52.270;10.546;2023-09-07T02:57:07;101243.22;;;30.34;40.23
54455;BME280;40364;52.270;10.546;2023-09-07T02:59:33;101254.88;;;30.18;40.45
54455;BME280;40364;52.270;10.546;2023-09-07T03:02:01;101245.66;;;30.70;39.73
54455;BME280;40364;52.270;10.546;2023-09-07T03:04:28;101248.03;;;30.37;40.09
54455;BME280;40364;52.270;10.546;2023-09-07T03:06:54;101251.81;;;30.47;40.17
54455;BME280;40364;52.270;10.546;2023-09-07T03:09:21;101245.56;;;30.27;40.07
54455;BME280;40364;52.270;10.546;2023-09-07T03:11:48;101249.91;;;30.31;39.94
54455;BME280;40364;52.270;10.546;2023-09-07T03:14:14;101252.19;;;30.36;39.85
54455;BME280;40364;52.270;10.546;2023-09-07T03:16:41;101255.75;;;30.28;40.13
54455;BME280;40364;52.270;10.546;2023-09-07T03:19:09;101247.88;;;30.54;40.06
54455;BME280;40364;52.270;10.546;2023-09-07T03:21:35;101251.63;;;30.29;40.15
54455;BME280;40364;52.270;10.546;2023-09-07T03:24:02;101257.25;;;30.32;40.30
54455;BME280;40364;52.270;10.546;2023-09-07T03:26:29;101249.09;;;30.31;40.08
54455;BME280;40364;52.270;10.546;2023-09-07T03:28:55;101253.09;;;30.33;40.00
54455;BME280;40364;52.270;10.546;2023-09-07T03:31:22;101253.91;;;30.34;39.77
54455;BME280;40364;52.270;10.546;2023-09-07T03:33:49;101258.16;;;30.29;39.89
54455;BME280;40364;52.270;10.546;2023-09-07T03:36:17;101250.88;;;30.50;39.95
54455;BME280;40364;52.270;10.546;2023-09-07T03:38:44;101262.34;;;30.15;40.06
54455;BME280;40364;52.270;10.546;2023-09-07T03:41:10;101253.41;;;30.01;40.41
54455;BME280;40364;52.270;10.546;2023-09-07T03:43:37;101248.00;;;30.03;40.14
54455;BME280;40364;52.270;10.546;2023-09-07T03:46:03;101251.56;;;30.07;40.29
54455;BME280;40364;52.270;10.546;2023-09-07T03:48:30;101250.66;;;30.10;39.97
54455;BME280;40364;52.270;10.546;2023-09-07T03:50:56;101257.78;;;30.05;40.29
54455;BME280;40364;52.270;10.546;2023-09-07T03:53:24;101262.75;;;30.39;40.12
54455;BME280;40364;52.270;10.546;2023-09-07T03:55:51;101255.09;;;29.98;39.99
54455;BME280;40364;52.270;10.546;2023-09-07T03:58:18;101260.06;;;29.85;40.33
54455;BME280;40364;52.270;10.546;2023-09-07T04:00:44;101255.34;;;30.17;39.97
54455;BME280;40364;52.270;10.546;2023-09-07T04:03:11;101252.94;;;30.02;40.21
54455;BME280;40364;52.270;10.546;2023-09-07T04:05:38;101255.59;;;30.09;40.49
54455;BME280;40364;52.270;10.546;2023-09-07T04:08:05;101250.50;;;30.26;40.29
54455;BME280;40364;52.270;10.546;2023-09-07T04:10:36;101245.25;;;30.46;40.07
54455;BME280;40364;52.270;10.546;2023-09-07T04:13:03;101243.28;;;30.09;40.08
54455;BME280;40364;52.270;10.546;2023-09-07T04:15:29;101252.94;;;29.90;40.49
54455;BME280;40364;52.270;10.546;2023-09-07T04:17:56;101257.53;;;30.00;40.26
54455;BME280;40364;52.270;10.546;2023-09-07T04:20:23;101244.91;;;29.85;40.36
54455;BME280;40364;52.270;10.546;2023-09-07T04:22:51;101247.66;;;29.75;40.36
54455;BME280;40364;52.270;10.546;2023-09-07T04:25:18;101252.03;;;29.93;40.47
54455;BME280;40364;52.270;10.546;2023-09-07T04:27:46;101258.09;;;30.20;40.10
54455;BME280;40364;52.270;10.546;2023-09-07T04:30:12;101258.94;;;29.82;40.03
54455;BME280;40364;52.270;10.546;2023-09-07T04:32:39;101262.59;;;29.70;40.78
54455;BME280;40364;52.270;10.546;2023-09-07T04:35:06;101258.25;;;29.91;40.31
54455;BME280;40364;52.270;10.546;2023-09-07T04:37:33;101254.91;;;29.80;39.98
54455;BME280;40364;52.270;10.546;2023-09-07T04:39:59;101257.09;;;29.89;39.58
54455;BME280;40364;52.270;10.546;2023-09-07T04:42:27;101251.47;;;29.85;40.31
54455;BME280;40364;52.270;10.546;2023-09-07T04:44:54;101253.06;;;30.11;39.75
54455;BME280;40364;52.270;10.546;2023-09-07T04:47:20;101251.09;;;29.70;40.22
54455;BME280;40364;52.270;10.546;2023-09-07T04:49:48;101249.50;;;29.95;40.01
54455;BME280;40364;52.270;10.546;2023-09-07T04:52:16;101255.25;;;29.69;39.97
54455;BME280;40364;52.270;10.546;2023-09-07T04:54:43;101254.66;;;29.74;40.17
54455;BME280;40364;52.270;10.546;2023-09-07T04:57:10;101260.44;;;29.62;40.42
54455;BME280;40364;52.270;10.546;2023-09-07T04:59:36;101260.75;;;29.76;40.08
54455;BME280;40364;52.270;10.546;2023-09-07T05:02:04;101262.47;;;29.99;39.88
54455;BME280;40364;52.270;10.546;2023-09-07T05:04:31;101257.53;;;29.74;40.25
54455;BME280;40364;52.270;10.546;2023-09-07T05:06:58;101257.19;;;29.72;40.10
54455;BME280;40364;52.270;10.546;2023-09-07T05:09:25;101272.03;;;29.83;39.98
54455;BME280;40364;52.270;10.546;2023-09-07T05:11:54;101271.78;;;29.91;39.80
54455;BME280;40364;52.270;10.546;2023-09-07T05:14:22;101266.44;;;30.27;39.44
54455;BME280;40364;52.270;10.546;2023-09-07T05:16:49;101272.03;;;29.83;39.84
54455;BME280;40364;52.270;10.546;2023-09-07T05:19:17;101277.19;;;30.14;39.56
54455;BME280;40364;52.270;10.546;2023-09-07T05:21:44;101280.19;;;29.85;39.93
54455;BME280;40364;52.270;10.546;2023-09-07T05:24:13;101275.69;;;30.22;39.77
54455;BME280;40364;52.270;10.546;2023-09-07T05:26:41;101288.09;;;30.19;39.96
54455;BME280;40364;52.270;10.546;2023-09-07T05:29:08;101288.22;;;29.90;39.76
54455;BME280;40364;52.270;10.546;2023-09-07T05:31:35;101288.22;;;30.03;39.98
54455;BME280;40364;52.270;10.546;2023-09-07T05:34:01;101292.13;;;29.96;39.78
54455;BME280;40364;52.270;10.546;2023-09-07T05:36:29;101285.34;;;30.15;40.15
54455;BME280;40364;52.270;10.546;2023-09-07T05:38:56;101287.97;;;29.97;39.90
54455;BME280;40364;52.270;10.546;2023-09-07T05:41:23;101289.81;;;30.04;39.88
54455;BME280;40364;52.270;10.546;2023-09-07T05:43:49;101293.81;;;29.43;41.31
54455;BME280;40364;52.270;10.546;2023-09-07T05:46:16;101289.59;;;29.86;40.60
54455;BME280;40364;52.270;10.546;2023-09-07T05:48:42;101295.13;;;30.05;40.19
54455;BME280;40364;52.270;10.546;2023-09-07T05:51:09;101296.59;;;30.10;40.56
54455;BME280;40364;52.270;10.546;2023-09-07T05:53:38;101288.72;;;30.48;40.16
54455;BME280;40364;52.270;10.546;2023-09-07T05:56:05;101298.06;;;30.27;40.50
54455;BME280;40364;52.270;10.546;2023-09-07T05:58:32;101296.03;;;30.02;41.14
54455;BME280;40364;52.270;10.546;2023-09-07T06:00:59;101285.16;;;30.57;40.12
54455;BME280;40364;52.270;10.546;2023-09-07T06:03:26;101280.91;;;30.36;40.50
54455;BME280;40364;52.270;10.546;2023-09-07T06:05:52;101284.81;;;30.42;40.37
54455;BME280;40364;52.270;10.546;2023-09-07T06:08:19;101283.56;;;30.56;40.27
54455;BME280;40364;52.270;10.546;2023-09-07T06:10:48;101280.25;;;31.01;39.83
54455;BME280;40364;52.270;10.546;2023-09-07T06:13:14;101286.50;;;30.65;40.14
54455;BME280;40364;52.270;10.546;2023-09-07T06:15:41;101288.66;;;30.74;39.85
54455;BME280;40364;52.270;10.546;2023-09-07T06:18:08;101288.41;;;30.81;39.70
54455;BME280;40364;52.270;10.546;2023-09-07T06:20:34;101291.47;;;30.87;39.79
54455;BME280;40364;52.270;10.546;2023-09-07T06:23:01;101296.81;;;30.97;40.00
54455;BME280;40364;52.270;10.546;2023-09-07T06:25:28;101292.41;;;31.05;39.70
54455;BME280;40364;52.270;10.546;2023-09-07T06:27:56;101279.84;;;31.34;39.46
54455;BME280;40364;52.270;10.546;2023-09-07T06:30:23;101299.88;;;31.16;39.54
54455;BME280;40364;52.270;10.546;2023-09-07T06:32:49;101303.69;;;31.12;39.40
54455;BME280;40364;52.270;10.546;2023-09-07T06:35:17;101303.34;;;31.32;39.31
54455;BME280;40364;52.270;10.546;2023-09-07T06:37:44;101307.00;;;31.33;39.35
54455;BME280;40364;52.270;10.546;2023-09-07T06:40:11;101309.91;;;31.33;39.50
54455;BME280;40364;52.270;10.546;2023-09-07T06:42:38;101311.91;;;31.45;39.33
54455;BME280;40364;52.270;10.546;2023-09-07T06:45:08;101312.94;;;31.91;38.99
54455;BME280;40364;52.270;10.546;2023-09-07T06:47:34;101315.13;;;31.56;39.58
54455;BME280;40364;52.270;10.546;2023-09-07T06:50:02;101309.06;;;31.85;39.25
54455;BME280;40364;52.270;10.546;2023-09-07T06:52:29;101311.50;;;31.65;39.51
54455;BME280;40364;52.270;10.546;2023-09-07T06:54:56;101311.84;;;31.98;39.07
54455;BME280;40364;52.270;10.546;2023-09-07T06:57:23;101306.03;;;31.89;39.41
54455;BME280;40364;52.270;10.546;2023-09-07T06:59:49;101313.03;;;32.19;38.99
54455;BME280;40364;52.270;10.546;2023-09-07T07:02:17;101313.28;;;32.33;39.44
54455;BME280;40364;52.270;10.546;2023-09-07T07:04:44;101321.03;;;32.14;39.52
54455;BME280;40364;52.270;10.546;2023-09-07T07:07:11;101315.09;;;32.09;39.96
54455;BME280;40364;52.270;10.546;2023-09-07T07:09:38;101317.66;;;32.07;40.06
54455;BME280;40364;52.270;10.546;2023-09-07T07:12:05;101314.88;;;32.43;39.77
54455;BME280;40364;52.270;10.546;2023-09-07T07:14:32;101314.41;;;32.36;39.84
54455;BME280;40364;52.270;10.546;2023-09-07T07:16:58;101310.41;;;32.52;39.58
54455;BME280;40364;52.270;10.546;2023-09-07T07:19:28;101322.16;;;32.85;39.69
54455;BME280;40364;52.270;10.546;2023-09-07T07:21:54;101313.94;;;32.56;39.78
54455;BME280;40364;52.270;10.546;2023-09-07T07:24:21;101313.50;;;32.85;39.22
54455;BME280;40364;52.270;10.546;2023-09-07T07:26:48;101310.47;;;32.79;39.60
54455;BME280;40364;52.270;10.546;2023-09-07T07:29:14;101314.00;;;33.01;39.17
54455;BME280;40364;52.270;10.546;2023-09-07T07:31:41;101309.16;;;32.71;39.63
54455;BME280;40364;52.270;10.546;2023-09-07T07:34:08;101319.09;;;33.16;39.32
54455;BME280;40364;52.270;10.546;2023-09-07T07:36:36;101313.88;;;33.65;38.81
54455;BME280;40364;52.270;10.546;2023-09-07T07:39:03;101320.22;;;33.18;38.81
54455;BME280;40364;52.270;10.546;2023-09-07T07:41:30;101314.34;;;33.64;38.14
54455;BME280;40364;52.270;10.546;2023-09-07T07:43:56;101316.59;;;33.69;37.96
54455;BME280;40364;52.270;10.546;2023-09-07T07:46:24;101315.44;;;33.75;38.17
54455;BME280;40364;52.270;10.546;2023-09-07T07:48:50;101310.31;;;33.89;37.46
54455;BME280;40364;52.270;10.546;2023-09-07T07:51:17;101317.53;;;33.84;37.21
54455;BME280;40364;52.270;10.546;2023-09-07T07:53:45;101318.50;;;34.47;36.25
54455;BME280;40364;52.270;10.546;2023-09-07T07:56:15;101319.81;;;34.46;36.16
54455;BME280;40364;52.270;10.546;2023-09-07T07:58:41;101327.25;;;34.38;36.48
54455;BME280;40364;52.270;10.546;2023-09-07T08:01:13;101317.72;;;35.09;35.29
54455;BME280;40364;52.270;10.546;2023-09-07T08:03:40;101316.66;;;34.83;35.88
54455;BME280;40364;52.270;10.546;2023-09-07T08:06:06;101309.34;;;34.49;35.85
54455;BME280;40364;52.270;10.546;2023-09-07T08:08:33;101316.28;;;34.42;35.62
54455;BME280;40364;52.270;10.546;2023-09-07T08:11:01;101313.41;;;35.04;35.20
54455;BME280;40364;52.270;10.546;2023-09-07T08:13:31;101316.50;;;35.01;34.97
54455;BME280;40364;52.270;10.546;2023-09-07T08:15:58;101313.53;;;35.10;34.54
54455;BME280;40364;52.270;10.546;2023-09-07T08:18:24;101314.16;;;34.90;34.82
54455;BME280;40364;52.270;10.546;2023-09-07T08:20:51;101310.91;;;34.97;34.57
54455;BME280;40364;52.270;10.546;2023-09-07T08:23:18;101310.59;;;34.95;34.05
54455;BME280;40364;52.270;10.546;2023-09-07T08:25:45;101316.97;;;35.38;33.55
54455;BME280;40364;52.270;10.546;2023-09-07T08:28:13;101301.75;;;35.87;32.86
54455;BME280;40364;52.270;10.546;2023-09-07T08:30:41;101319.16;;;34.66;34.21
54455;BME280;40364;52.270;10.546;2023-09-07T08:33:08;101302.50;;;34.61;34.05
54455;BME280;40364;52.270;10.546;2023-09-07T08:35:34;101311.13;;;35.97;32.25
54455;BME280;40364;52.270;10.546;2023-09-07T08:38:03;101311.47;;;35.55;32.95
54455;BME280;40364;52.270;10.546;2023-09-07T08:40:33;101310.28;;;35.47;32.68
54455;BME280;40364;52.270;10.546;2023-09-07T08:43:03;101307.06;;;35.89;31.55
54455;BME280;40364;52.270;10.546;2023-09-07T08:45:35;101308.63;;;36.39;30.89
54455;BME280;40364;52.270;10.546;2023-09-07T08:48:06;101309.47;;;36.25;31.96
54455;BME280;40364;52.270;10.546;2023-09-07T08:50:34;101318.25;;;36.71;31.20
54455;BME280;40364;52.270;10.546;2023-09-07T08:53:03;101316.09;;;36.11;31.87
54455;BME280;40364;52.270;10.546;2023-09-07T08:55:30;101318.34;;;36.57;31.11
54455;BME280;40364;52.270;10.546;2023-09-07T08:57:57;101326.50;;;36.73;30.63
54455;BME280;40364;52.270;10.546;2023-09-07T09:00:24;101316.22;;;36.02;31.52
54455;BME280;40364;52.270;10.546;2023-09-07T09:02:52;101320.19;;;36.95;31.21
54455;BME280;40364;52.270;10.546;2023-09-07T09:05:20;101317.28;;;36.19;31.66
54455;BME280;40364;52.270;10.546;2023-09-07T09:07:46;101323.13;;;37.00;31.05
54455;BME280;40364;52.270;10.546;2023-09-07T09:10:13;101317.09;;;36.43;31.15
54455;BME280;40364;52.270;10.546;2023-09-07T09:12:45;101324.28;;;37.29;30.91
54455;BME280;40364;52.270;10.546;2023-09-07T09:15:12;101318.03;;;37.16;30.61
54455;BME280;40364;52.270;10.546;2023-09-07T09:17:39;101316.63;;;36.85;30.68
54455;BME280;40364;52.270;10.546;2023-09-07T09:20:19;101319.28;;;37.29;30.30
54455;BME280;40364;52.270;10.546;2023-09-07T09:22:46;101313.38;;;36.78;31.16
54455;BME280;40364;52.270;10.546;2023-09-07T09:25:13;101317.06;;;36.78;30.68
54455;BME280;40364;52.270;10.546;2023-09-07T09:27:39;101315.41;;;37.18;29.98
54455;BME280;40364;52.270;10.546;2023-09-07T09:30:07;101317.91;;;37.82;29.78
54455;BME280;40364;52.270;10.546;2023-09-07T09:32:34;101313.94;;;37.80;30.35
54455;BME280;40364;52.270;10.546;2023-09-07T09:35:01;101316.22;;;37.44;30.21
54455;BME280;40364;52.270;10.546;2023-09-07T09:37:32;101310.34;;;37.96;30.19
54455;BME280;40364;52.270;10.546;2023-09-07T09:40:00;101306.56;;;37.84;30.30
54455;BME280;40364;52.270;10.546;2023-09-07T09:42:29;101299.44;;;37.07;30.84
54455;BME280;40364;52.270;10.546;2023-09-07T09:44:56;101301.09;;;36.88;30.55
54455;BME280;40364;52.270;10.546;2023-09-07T09:47:24;101297.53;;;37.51;30.41
54455;BME280;40364;52.270;10.546;2023-09-07T09:49:52;101298.50;;;37.68;29.14
54455;BME280;40364;52.270;10.546;2023-09-07T09:52:19;101291.59;;;37.14;30.34
54455;BME280;40364;52.270;10.546;2023-09-07T09:54:47;101289.38;;;37.55;30.31
54455;BME280;40364;52.270;10.546;2023-09-07T09:57:15;101281.06;;;36.90;30.26
54455;BME280;40364;52.270;10.546;2023-09-07T09:59:42;101285.22;;;36.84;30.40
54455;BME280;40364;52.270;10.546;2023-09-07T10:02:09;101285.97;;;37.30;30.60
54455;BME280;40364;52.270;10.546;2023-09-07T10:04:38;101287.97;;;37.45;29.56
54455;BME280;40364;52.270;10.546;2023-09-07T10:07:04;101288.25;;;36.34;31.14
54455;BME280;40364;52.270;10.546;2023-09-07T10:09:32;101289.97;;;37.90;29.05
54455;BME280;40364;52.270;10.546;2023-09-07T10:12:01;101285.00;;;38.02;28.75
54455;BME280;40364;52.270;10.546;2023-09-07T10:14:37;101282.56;;;37.58;29.03
54455;BME280;40364;52.270;10.546;2023-09-07T10:17:05;101284.28;;;37.75;28.54
54455;BME280;40364;52.270;10.546;2023-09-07T10:19:31;101280.66;;;37.55;28.60
54455;BME280;40364;52.270;10.546;2023-09-07T10:21:59;101277.44;;;37.47;28.62
54455;BME280;40364;52.270;10.546;2023-09-07T10:24:27;101280.06;;;37.45;29.33
54455;BME280;40364;52.270;10.546;2023-09-07T10:26:58;101280.13;;;38.19;28.07
54455;BME280;40364;52.270;10.546;2023-09-07T10:29:26;101279.97;;;38.39;28.17
54455;BME280;40364;52.270;10.546;2023-09-07T10:31:54;101281.25;;;38.33;28.29
54455;BME280;40364;52.270;10.546;2023-09-07T10:34:21;101288.34;;;38.21;28.24
54455;BME280;40364;52.270;10.546;2023-09-07T10:36:56;101281.63;;;38.52;27.45
54455;BME280;40364;52.270;10.546;2023-09-07T10:39:22;101290.22;;;38.89;27.81
54455;BME280;40364;52.270;10.546;2023-09-07T10:41:49;101283.75;;;39.55;27.22
54455;BME280;40364;52.270;10.546;2023-09-07T10:44:26;101284.53;;;39.50;25.81
54455;BME280;40364;52.270;10.546;2023-09-07T10:46:53;101291.56;;;38.93;26.70
54455;BME280;40364;52.270;10.546;2023-09-07T10:49:20;101285.94;;;38.19;26.74
54455;BME280;40364;52.270;10.546;2023-09-07T10:51:47;101286.38;;;39.31;25.81
54455;BME280;40364;52.270;10.546;2023-09-07T10:54:15;101282.16;;;39.54;25.95
54455;BME280;40364;52.270;10.546;2023-09-07T10:56:43;101272.81;;;40.17;25.47
54455;BME280;40364;52.270;10.546;2023-09-07T10:59:10;101277.50;;;40.48;24.86
54455;BME280;40364;52.270;10.546;2023-09-07T11:01:38;101272.34;;;40.77;24.82
54455;BME280;40364;52.270;10.546;2023-09-07T11:04:05;101272.31;;;40.88;24.29
54455;BME280;40364;52.270;10.546;2023-09-07T11:06:34;101260.91;;;40.84;24.89
54455;BME280;40364;52.270;10.546;2023-09-07T11:09:02;101265.66;;;40.87;24.47
54455;BME280;40364;52.270;10.546;2023-09-07T11:11:31;101265.22;;;41.54;24.34
54455;BME280;40364;52.270;10.546;2023-09-07T11:13:58;101260.94;;;41.85;24.31
54455;BME280;40364;52.270;10.546;2023-09-07T11:16:25;101264.81;;;42.48;23.28
54455;BME280;40364;52.270;10.546;2023-09-07T11:18:54;101256.75;;;42.05;23.16
54455;BME280;40364;52.270;10.546;2023-09-07T11:21:20;101248.59;;;42.47;22.60
54455;BME280;40364;52.270;10.546;2023-09-07T11:23:47;101261.81;;;42.91;22.50
54455;BME280;40364;52.270;10.546;2023-09-07T11:26:14;101247.28;;;43.17;22.11
54455;BME280;40364;52.270;10.546;2023-09-07T11:28:45;101259.28;;;43.00;22.52
54455;BME280;40364;52.270;10.546;2023-09-07T11:31:12;101255.53;;;42.62;22.17
54455;BME280;40364;52.270;10.546;2023-09-07T11:33:40;101249.44;;;42.60;21.82
54455;BME280;40364;52.270;10.546;2023-09-07T11:36:09;101244.97;;;40.85;23.53
54455;BME280;40364;52.270;10.546;2023-09-07T11:38:37;101253.63;;;41.73;22.63
54455;BME280;40364;52.270;10.546;2023-09-07T11:41:04;101240.63;;;41.38;23.05
54455;BME280;40364;52.270;10.546;2023-09-07T11:43:31;101252.63;;;40.94;23.67
54455;BME280;40364;52.270;10.546;2023-09-07T11:45:59;101248.59;;;43.03;21.71
54455;BME280;40364;52.270;10.546;2023-09-07T11:48:26;101242.88;;;43.61;21.02
54455;BME280;40364;52.270;10.546;2023-09-07T11:50:53;101250.72;;;42.84;21.03
54455;BME280;40364;52.270;10.546;2023-09-07T11:53:22;101238.81;;;42.39;21.35
54455;BME280;40364;52.270;10.546;2023-09-07T11:55:48;101243.41;;;43.60;20.79
54455;BME280;40364;52.270;10.546;2023-09-07T11:58:15;101243.75;;;44.02;20.54
54455;BME280;40364;52.270;10.546;2023-09-07T12:00:42;101247.75;;;42.03;21.68
54455;BME280;40364;52.270;10.546;2023-09-07T12:03:09;101240.28;;;42.26;21.40
54455;BME280;40364;52.270;10.546;2023-09-07T12:05:35;101236.69;;;42.58;21.31
54455;BME280;40364;52.270;10.546;2023-09-07T12:08:05;101237.72;;;43.49;21.07
54455;BME280;40364;52.270;10.546;2023-09-07T12:10:34;101236.16;;;45.27;20.14
54455;BME280;40364;52.270;10.546;2023-09-07T12:13:01;101240.63;;;43.67;20.49
54455;BME280;40364;52.270;10.546;2023-09-07T12:15:27;101240.44;;;44.05;19.73
54455;BME280;40364;52.270;10.546;2023-09-07T12:17:54;101229.47;;;44.58;19.62
54455;BME280;40364;52.270;10.546;2023-09-07T12:20:21;101231.72;;;45.54;18.89
54455;BME280;40364;52.270;10.546;2023-09-07T12:22:48;101230.34;;;45.76;19.06
54455;BME280;40364;52.270;10.546;2023-09-07T12:25:15;101232.38;;;45.19;19.35
54455;BME280;40364;52.270;10.546;2023-09-07T12:27:43;101226.38;;;45.94;18.65
54455;BME280;40364;52.270;10.546;2023-09-07T12:30:12;101224.50;;;46.41;18.50
54455;BME280;40364;52.270;10.546;2023-09-07T12:32:39;101220.75;;;46.04;18.66
54455;BME280;40364;52.270;10.546;2023-09-07T12:35:07;101225.19;;;45.69;19.04
54455;BME280;40364;52.270;10.546;2023-09-07T12:37:34;101219.28;;;46.26;19.01
54455;BME280;40364;52.270;10.546;2023-09-07T12:40:02;101216.28;;;45.90;18.61
54455;BME280;40364;52.270;10.546;2023-09-07T12:42:37;101223.13;;;46.42;17.95
54455;BME280;40364;52.270;10.546;2023-09-07T12:45:07;101223.81;;;45.49;18.39
54455;BME280;40364;52.270;10.546;2023-09-07T12:47:34;101213.34;;;46.18;18.52